San Clemente, CA (92672)

10:36 PM PDT on March 26, 2015 (GMT -0700)
Shorecliffs | | Change Station
CLOSE
Current Station
Personal Weather Station
Location: San Clemente, CA
Elevation: 174 ft
Nearby Weather Stations
Active Advisory: Beach Hazard Statement Active Notice: Record Report

Elev 174 ft 33.44 °N, 117.64 °W | Updated 23 seconds ago

Clear
Clear
68.6 °F
Feels Like 68.6 °F
N
2.0
Wind Variable Wind from NNW
Gusts 0.0 mph

Today
High -- | Low -- °F
--% Chance of Precip.
Yesterday
High -- | Low -- °F
Precip. -- in
6:46 AM 7:06 PM
Waxing Crescent, 49% visible
Pressure 30.29 in
Visibility 8.0 miles
Clouds Clear
Dew Point 60 °F
Humidity 74%
Rainfall 0.00 in
Snow Depth Not available.
UV 0 out of 12
Pollen 9.70 out of 12
Air Quality Not available.
Flu Activity Not available.
METAR KNXF 270456Z AUTO 10003KT 8SM CLR 19/14 A3004 RMK AO2 SLP256 T01890144 $

More Conditions Fewer Conditions

Pressure 30.29 in
Visibility 8.0 miles
Clouds Clear
Dew Point 60 °F
Humidity 74%
Rainfall 0.00 in
Snow Depth Not available.
UV 0 out of 12
Pollen 9.70 out of 12
Air Quality Not available.
Flu Activity Not available.
METAR KNXF 270456Z AUTO 10003KT 8SM CLR 19/14 A3004 RMK AO2 SLP256 T01890144 $

More Conditions Fewer Conditions

10-Day Weather Forecast

Almanac

Astronomy

Mar. 26, 2015 Rise Set
Actual Time
Civil Twilight
Nautical Twilight
Astronomical Twilight
Moon
Length of Visible Light
Length of Day
Tomorrow will be .
, % of the Moon is Illuminated

Today's Extremes

State Highs State Lows

Community

WunderPhotos

Upload Photos

1,808,698 photos uploaded!

WunderBlogs® & News

Nearby

Air Quality

  Air Quality AQ Index Pollutant
Not available.

Snow Depth

Station Depth Elevation

Earthquake Activity

City Distance Mag. Time & Date
Minimum magnitude displayed is 2.5.

Coastal Water Temperatures

Place Temperature

Stations

Nearby Weather Stations

Station Location Temp. Windchill Dew Point Humidity Wind Precip. Elev Updated Type
                   
Beach Hazard Statement
Statement as of 8:22 PM PDT on March 26, 2015

... Beach hazards statement now in effect through Sunday
afternoon...

* waves and surf... 3 to 5 feet. Occasional sets to 6 feet.

* Timing... tonight through Sunday.

* Impacts... strong rip currents producing hazardous conditions for
beach goers... particularly Friday and Saturday.

Precautionary/preparedness actions...

Use caution when in or near the water and always swim near a
lifeguard.

Never turn your back to the ocean.

A beach hazards statement is issued when threats such as strong
rip currents... elevated surf heights... minor tidal overflow... or
lightning are possible at local beaches. Obey posted warning
signs and flags and talk to a lifeguard before swimming.


Pierce

The National Weather Service wants to hear from you.